createdAt,value
2023-05-04T00:04:17.869Z,17.68
2023-05-04T00:14:25.050Z,17.67
2023-05-04T00:24:33.634Z,17.70
2023-05-04T00:34:39.590Z,17.70
2023-05-04T00:44:45.073Z,17.71
2023-05-04T00:54:50.763Z,17.76
2023-05-04T01:04:56.526Z,17.76
2023-05-04T01:15:02.335Z,17.81
2023-05-04T01:25:09.908Z,17.94
2023-05-04T01:35:17.144Z,17.94
2023-05-04T01:45:22.840Z,18.02
2023-05-04T01:55:28.517Z,17.99
2023-05-04T02:05:33.740Z,17.99
2023-05-04T02:15:39.559Z,17.94
2023-05-04T02:25:45.764Z,17.94
2023-05-04T02:35:51.586Z,17.88
2023-05-04T02:45:56.718Z,17.88
2023-05-04T02:56:02.392Z,17.85
2023-05-04T03:06:08.068Z,17.88
2023-05-04T03:16:19.787Z,17.88
2023-05-04T03:26:25.507Z,17.88
2023-05-04T03:36:32.674Z,17.89
2023-05-04T03:46:38.163Z,17.89
2023-05-04T03:56:45.267Z,17.88
2023-05-04T04:06:51.630Z,17.90
2023-05-04T04:16:57.819Z,17.98
2023-05-04T04:27:03.041Z,17.98
2023-05-04T04:37:04.150Z,11.77
2023-05-04T04:47:07.770Z,8.83
2023-05-04T04:57:15.860Z,14.56
2023-05-04T05:07:23.597Z,15.68
2023-05-04T05:17:29.665Z,15.68
2023-05-04T05:27:32.063Z,16.05
2023-05-04T05:37:35.365Z,6.20
2023-05-04T05:47:41.385Z,4.99
2023-05-04T05:57:47.183Z,6.24
2023-05-04T06:07:55.937Z,9.40
2023-05-04T06:18:02.844Z,12.83
2023-05-04T06:28:08.783Z,14.09
2023-05-04T06:38:14.957Z,14.87
2023-05-04T06:48:21.122Z,15.81
2023-05-04T06:58:27.424Z,16.13
2023-05-04T07:08:33.403Z,16.13
2023-05-04T07:18:38.847Z,16.42
2023-05-04T07:28:44.515Z,16.68
2023-05-04T07:38:50.142Z,16.89
2023-05-04T07:48:55.833Z,17.01
2023-05-04T07:59:01.854Z,17.12
2023-05-04T08:09:07.494Z,17.12
2023-05-04T08:19:13.492Z,17.24
2023-05-04T08:29:19.398Z,17.45
2023-05-04T08:39:25.285Z,17.60
2023-05-04T08:49:31.182Z,17.84
2023-05-04T08:59:37.206Z,17.94
2023-05-04T09:09:42.875Z,17.94
2023-05-04T09:19:48.339Z,18.03
2023-05-04T09:29:53.527Z,17.68
2023-05-04T09:39:59.046Z,17.68
2023-05-04T09:50:04.907Z,17.54
2023-05-04T10:00:10.792Z,17.66
2023-05-04T10:10:16.544Z,17.66
2023-05-04T10:20:22.425Z,17.63
2023-05-04T10:30:28.408Z,17.88
2023-05-04T10:40:33.860Z,17.88
2023-05-04T10:50:39.403Z,17.78
2023-05-04T11:00:45.509Z,17.72
2023-05-04T11:10:51.544Z,17.71
2023-05-04T11:20:57.024Z,17.71
2023-05-04T11:31:02.972Z,17.73
2023-05-04T11:41:09.440Z,17.73
2023-05-04T11:51:15.349Z,17.76
2023-05-04T12:01:20.657Z,17.76
2023-05-04T12:11:26.168Z,17.80
2023-05-04T12:21:32.712Z,17.81
2023-05-04T12:31:39.782Z,17.86
2023-05-04T12:41:45.504Z,17.88
2023-05-04T12:53:10.400Z,17.88
2023-05-04T13:03:15.201Z,17.98
2023-05-04T13:13:20.649Z,17.94
2023-05-04T13:23:26.324Z,17.94
2023-05-04T13:33:32.015Z,17.95
2023-05-04T13:43:37.741Z,17.95
2023-05-04T13:53:43.269Z,17.99
2023-05-04T14:03:48.589Z,17.99
2023-05-04T14:13:55.153Z,17.99
2023-05-04T14:24:00.745Z,18.03
2023-05-04T14:34:06.758Z,18.03
2023-05-04T14:44:12.920Z,18.03
2023-05-04T14:54:20.219Z,18.03
2023-05-04T15:04:25.911Z,18.05
2023-05-04T15:14:31.629Z,18.04
2023-05-04T15:24:36.602Z,18.04
2023-05-04T15:34:45.830Z,18.04
2023-05-04T15:44:52.737Z,18.07
2023-05-04T15:55:00.655Z,18.07
2023-05-04T16:05:09.359Z,18.07
2023-05-04T16:15:15.051Z,18.10
2023-05-04T16:25:20.951Z,18.10
2023-05-04T16:35:26.601Z,18.10
2023-05-04T16:46:53.306Z,18.10
2023-05-04T16:56:58.153Z,18.18
2023-05-04T17:07:03.594Z,18.17
2023-05-04T17:17:09.100Z,18.14
2023-05-04T17:27:15.441Z,18.13
2023-05-04T17:37:21.276Z,18.13
2023-05-04T17:47:27.990Z,18.14
2023-05-04T17:57:33.785Z,18.14
2023-05-04T18:07:39.349Z,18.14
2023-05-04T18:17:45.086Z,18.14
2023-05-04T18:27:51.324Z,18.13
2023-05-04T18:39:16.429Z,18.13
2023-05-04T18:49:21.311Z,18.16
2023-05-04T18:59:26.936Z,18.16
2023-05-04T19:09:32.709Z,18.12
2023-05-04T19:19:38.349Z,18.10
2023-05-04T19:29:44.237Z,18.07
2023-05-04T19:39:49.941Z,18.05
2023-05-04T19:49:55.239Z,18.04
2023-05-04T20:00:00.797Z,18.03
2023-05-04T20:10:06.810Z,18.07
2023-05-04T20:20:15.482Z,18.07
2023-05-04T20:30:20.234Z,14.14
2023-05-04T20:40:27.480Z,15.47
2023-05-04T20:50:33.830Z,15.47
2023-05-04T21:02:00.418Z,16.56
2023-05-04T21:12:06.113Z,17.05
2023-05-04T21:22:14.582Z,17.23
2023-05-04T21:32:26.628Z,17.42
2023-05-04T21:42:34.099Z,17.56
2023-05-04T21:52:40.800Z,17.62
2023-05-04T22:02:47.796Z,17.66
2023-05-04T22:12:54.231Z,17.66
2023-05-04T22:23:00.441Z,17.71
2023-05-04T22:33:06.319Z,17.78
2023-05-04T22:43:13.105Z,17.78
2023-05-04T22:53:20.430Z,17.81
2023-05-04T23:03:25.864Z,17.86
2023-05-04T23:13:31.512Z,17.86
2023-05-04T23:23:37.481Z,17.90
2023-05-04T23:33:43.202Z,17.90
2023-05-04T23:43:48.928Z,17.89
2023-05-04T23:53:54.917Z,17.89
